Time;durP1;ratioP1;P1;durP2;ratioP2;P2;SDS_P1;SDS_P2;PMS_P1;PMS_P2;Temp;Humidity;BMP_temperature;BMP_pressure;BME280_temperature;BME280_humidity;BME280_pressure;Samples;Min_cycle;Max_cycle;Signal;HPM_P1;HPM_P2
2023/03/30 00:01:43;;;;;;;9.30;7.07;;;9.30;99.90;;;;;;5013971;28;20186;-89
2023/03/30 00:04:10;;;;;;;10.23;7.00;;;9.30;99.90;;;;;;5014406;28;20194;-90
2023/03/30 00:06:37;;;;;;;10.68;6.88;;;9.30;99.90;;;;;;5014602;28;20238;-89
2023/03/30 00:09:05;;;;;;;9.93;7.43;;;9.30;99.90;;;;;;4997323;28;20187;-89
2023/03/30 00:11:32;;;;;;;9.63;7.15;;;9.20;99.90;;;;;;5024962;28;20270;-88
2023/03/30 00:14:00;;;;;;;10.68;7.13;;;9.20;99.90;;;;;;4996850;28;20249;-88
2023/03/30 00:16:28;;;;;;;9.95;7.80;;;9.20;99.90;;;;;;5003800;28;20183;-87
2023/03/30 00:18:54;;;;;;;10.80;8.00;;;9.20;99.90;;;;;;5032589;28;20675;-85
2023/03/30 00:21:20;;;;;;;12.38;7.45;;;9.20;99.90;;;;;;5011500;28;20179;-88
2023/03/30 00:23:46;;;;;;;12.00;7.43;;;9.10;99.90;;;;;;5004737;28;20262;-88
2023/03/30 00:26:19;;;;;;;7.95;7.05;;;9.10;99.90;;;;;;4997860;28;20208;-89
2023/03/30 00:28:45;;;;;;;8.88;7.18;;;9.10;99.90;;;;;;5003366;28;20179;-89
2023/03/30 00:31:11;;;;;;;10.90;7.35;;;9.10;99.90;;;;;;5035955;28;20678;-87
2023/03/30 00:33:37;;;;;;;10.50;6.53;;;9.10;99.90;;;;;;5017480;28;20180;-87
2023/03/30 00:36:03;;;;;;;9.45;7.60;;;9.10;99.90;;;;;;5001497;28;20191;-88
2023/03/30 00:38:30;;;;;;;9.82;6.68;;;9.00;99.90;;;;;;5020101;28;20171;-87
2023/03/30 00:40:59;;;;;;;9.90;7.30;;;9.00;99.90;;;;;;5024337;28;20196;-87
2023/03/30 00:43:26;;;;;;;11.00;6.95;;;9.00;99.90;;;;;;5006670;28;20177;-88
2023/03/30 00:45:52;;;;;;;9.05;7.13;;;9.00;99.90;;;;;;4999734;28;20541;-86
2023/03/30 00:48:27;;;;;;;9.15;7.00;;;9.00;99.90;;;;;;5017610;28;20190;-87
2023/03/30 00:50:58;;;;;;;10.35;7.18;;;9.00;99.90;;;;;;5008944;28;20278;-88
2023/03/30 00:53:47;;;;;;;10.52;7.15;;;9.00;99.90;;;;;;4999118;28;20214;-87
2023/03/30 00:56:16;;;;;;;11.02;7.35;;;9.00;99.90;;;;;;5008479;28;20759;-87
2023/03/30 00:58:44;;;;;;;10.65;7.55;;;9.00;99.90;;;;;;5017220;28;20171;-88
2023/03/30 01:01:13;;;;;;;10.95;7.30;;;9.00;99.90;;;;;;5037120;28;20255;-87
2023/03/30 01:03:44;;;;;;;13.02;7.72;;;9.00;99.90;;;;;;5008726;28;20198;-89
2023/03/30 01:06:12;;;;;;;11.70;7.30;;;9.00;99.90;;;;;;5018887;28;20303;-89
2023/03/30 01:08:39;;;;;;;10.68;8.27;;;9.00;99.90;;;;;;5037029;28;20186;-87
2023/03/30 01:11:07;;;;;;;10.43;7.35;;;9.10;99.90;;;;;;5022123;28;20566;-88
2023/03/30 01:13:37;;;;;;;12.15;7.75;;;9.00;99.90;;;;;;5015431;28;20688;-85
2023/03/30 01:16:19;;;;;;;9.93;7.40;;;9.00;99.90;;;;;;5015659;28;20198;-88
2023/03/30 01:19:15;;;;;;;9.80;7.15;;;9.00;99.90;;;;;;5017085;28;20178;-88
2023/03/30 01:21:59;;;;;;;10.10;7.20;;;9.00;99.90;;;;;;5031415;28;20198;-88
2023/03/30 01:24:34;;;;;;;10.63;7.30;;;9.00;99.90;;;;;;5002822;28;20203;-88
2023/03/30 01:27:22;;;;;;;9.27;6.80;;;8.90;99.90;;;;;;5002727;28;20226;-87
2023/03/30 01:30:25;;;;;;;11.50;7.05;;;8.90;99.90;;;;;;5016986;28;20170;-86
2023/03/30 01:33:20;;;;;;;10.52;6.65;;;8.90;99.90;;;;;;5015708;28;20179;-88
2023/03/30 01:35:58;;;;;;;10.07;7.47;;;8.90;99.90;;;;;;4996241;28;20182;-89
2023/03/30 01:38:57;;;;;;;14.10;7.40;;;8.90;99.90;;;;;;5010665;28;20266;-88
2023/03/30 01:41:32;;;;;;;9.75;6.93;;;8.90;99.90;;;;;;5014885;28;20183;-88
2023/03/30 01:44:07;;;;;;;9.48;6.65;;;8.80;99.90;;;;;;5015452;28;20609;-89
2023/03/30 01:46:39;;;;;;;9.77;7.45;;;8.80;99.90;;;;;;5015596;28;20311;-84
2023/03/30 01:49:31;;;;;;;9.98;7.03;;;8.80;99.90;;;;;;5031791;28;20242;-87
2023/03/30 01:52:05;;;;;;;9.38;6.75;;;8.70;99.90;;;;;;5015826;28;20179;-88
2023/03/30 01:54:35;;;;;;;8.95;7.10;;;8.70;99.90;;;;;;5016078;28;20210;-88
2023/03/30 01:57:26;;;;;;;6.95;6.10;;;8.60;99.90;;;;;;5015625;28;20192;-89
2023/03/30 02:00:00;;;;;;;10.13;6.40;;;8.50;99.90;;;;;;5031870;28;20175;-88
2023/03/30 02:02:29;;;;;;;10.45;6.70;;;8.50;99.90;;;;;;5015492;28;20662;-89
2023/03/30 02:04:58;;;;;;;8.00;6.47;;;8.50;99.90;;;;;;5014422;28;20183;-88
2023/03/30 02:07:28;;;;;;;8.88;6.13;;;8.50;99.90;;;;;;5014802;28;20215;-88
2023/03/30 02:10:00;;;;;;;11.40;6.25;;;8.40;99.90;;;;;;5015841;28;20179;-87
2023/03/30 02:12:28;;;;;;;8.38;6.38;;;8.40;99.90;;;;;;5014387;28;20256;-88
2023/03/30 02:14:58;;;;;;;12.38;6.10;;;8.40;99.90;;;;;;5011422;28;20514;-88
2023/03/30 02:17:28;;;;;;;7.85;6.45;;;8.40;99.90;;;;;;5000663;28;20175;-88
2023/03/30 02:19:56;;;;;;;8.25;6.45;;;8.40;99.90;;;;;;5014826;28;20218;-87
2023/03/30 02:22:25;;;;;;;8.43;6.43;;;8.40;99.90;;;;;;5017845;28;20171;-87
2023/03/30 02:24:53;;;;;;;8.88;6.18;;;8.40;99.90;;;;;;5014741;28;20221;-89
2023/03/30 02:27:21;;;;;;;11.65;6.78;;;8.40;99.90;;;;;;5015432;28;20207;-88
2023/03/30 02:29:47;;;;;;;9.00;6.00;;;8.40;99.90;;;;;;5015902;28;20187;-88
2023/03/30 02:32:26;;;;;;;10.65;6.72;;;8.40;99.90;;;;;;5012708;28;20503;-89
2023/03/30 02:35:03;;;;;;;8.40;6.28;;;8.40;99.90;;;;;;5015472;28;20175;-88
2023/03/30 02:37:49;;;;;;;9.40;6.65;;;8.40;99.90;;;;;;5014301;28;20183;-88
2023/03/30 02:40:32;;;;;;;9.32;5.90;;;8.40;99.90;;;;;;5014184;28;20175;-87
2023/03/30 02:43:03;;;;;;;11.43;6.65;;;8.40;99.90;;;;;;4995884;28;20610;-88
2023/03/30 02:45:40;;;;;;;9.30;6.90;;;8.30;99.90;;;;;;5015114;28;20217;-87
2023/03/30 02:48:21;;;;;;;10.30;5.95;;;8.30;99.90;;;;;;5014799;28;20692;-87
2023/03/30 02:51:21;;;;;;;10.80;6.05;;;8.30;99.90;;;;;;5014449;28;20174;-87
2023/03/30 02:54:00;;;;;;;7.45;5.65;;;8.20;99.90;;;;;;5014426;28;20247;-88
2023/03/30 02:56:37;;;;;;;9.35;6.25;;;8.20;99.90;;;;;;5015151;28;20226;-89
2023/03/30 02:59:31;;;;;;;9.90;6.32;;;8.20;99.90;;;;;;4996199;28;20184;-88
2023/03/30 03:02:18;;;;;;;8.27;5.75;;;8.10;99.90;;;;;;4997404;28;20568;-88
2023/03/30 03:04:46;;;;;;;7.07;5.97;;;8.10;99.90;;;;;;4999444;28;20202;-88
2023/03/30 03:07:13;;;;;;;7.88;6.25;;;8.10;99.90;;;;;;5023484;28;20644;-89
2023/03/30 03:09:40;;;;;;;8.80;6.03;;;8.10;99.90;;;;;;5035397;28;20177;-84
2023/03/30 03:12:06;;;;;;;8.90;6.15;;;8.00;99.90;;;;;;5003176;28;20282;-85
2023/03/30 03:14:31;;;;;;;8.77;5.45;;;8.00;99.90;;;;;;4998794;28;20255;-88
2023/03/30 03:16:57;;;;;;;9.32;5.95;;;8.10;99.90;;;;;;5034776;28;20211;-88
2023/03/30 03:19:23;;;;;;;9.38;6.45;;;8.20;99.90;;;;;;4993952;28;20188;-88
2023/03/30 03:21:49;;;;;;;7.95;5.72;;;8.20;99.90;;;;;;5004428;28;20266;-88
2023/03/30 03:24:16;;;;;;;8.65;6.45;;;8.20;99.90;;;;;;4997168;28;20183;-86
2023/03/30 03:26:42;;;;;;;11.27;5.93;;;8.30;99.90;;;;;;4994005;28;20600;-87
2023/03/30 03:29:08;;;;;;;11.07;6.80;;;8.30;99.90;;;;;;5029511;28;20186;-88
2023/03/30 03:31:34;;;;;;;9.05;6.53;;;8.30;99.90;;;;;;5026920;28;20194;-87
2023/03/30 03:34:00;;;;;;;14.10;5.80;;;8.40;99.90;;;;;;4997108;28;20175;-88
2023/03/30 03:36:26;;;;;;;9.63;6.07;;;8.40;99.90;;;;;;5030812;28;20190;-89
2023/03/30 03:38:52;;;;;;;9.40;6.50;;;8.50;99.90;;;;;;5001869;28;20221;-87
2023/03/30 03:41:18;;;;;;;11.43;6.50;;;8.50;99.90;;;;;;5014499;28;20309;-84
2023/03/30 03:43:44;;;;;;;10.47;6.23;;;8.50;99.90;;;;;;4996601;28;20214;-86
2023/03/30 03:46:10;;;;;;;9.05;5.95;;;8.40;99.90;;;;;;5014027;28;20214;-85
2023/03/30 03:48:38;;;;;;;9.88;6.40;;;8.50;99.90;;;;;;4995754;28;20175;-83
2023/03/30 03:51:04;;;;;;;8.70;5.60;;;8.50;99.90;;;;;;4998658;28;20612;-83
2023/03/30 03:53:30;;;;;;;7.97;5.70;;;8.60;99.90;;;;;;5017066;28;20171;-83
2023/03/30 03:55:56;;;;;;;8.18;5.75;;;8.60;99.90;;;;;;5020468;28;20221;-83
2023/03/30 03:58:24;;;;;;;11.10;6.07;;;8.60;99.90;;;;;;5017463;28;20525;-83
2023/03/30 04:00:51;;;;;;;9.85;5.47;;;8.60;99.90;;;;;;5017993;28;20209;-82
2023/03/30 04:03:16;;;;;;;6.88;5.22;;;8.60;99.90;;;;;;5002440;28;20210;-83
2023/03/30 04:05:42;;;;;;;7.43;4.65;;;8.50;99.90;;;;;;5000193;28;20246;-83
2023/03/30 04:08:09;;;;;;;10.13;4.88;;;8.50;99.90;;;;;;4999784;28;20211;-86
2023/03/30 04:10:40;;;;;;;8.60;4.82;;;8.60;99.90;;;;;;5017184;28;20178;-87
2023/03/30 04:13:06;;;;;;;7.07;4.40;;;8.60;99.90;;;;;;5022547;28;20229;-87
2023/03/30 04:15:32;;;;;;;6.70;4.68;;;8.60;99.90;;;;;;5004155;28;20170;-86
2023/03/30 04:17:58;;;;;;;7.40;4.25;;;8.70;99.90;;;;;;5037708;28;20175;-87
2023/03/30 04:20:25;;;;;;;6.75;4.50;;;8.70;99.90;;;;;;5022007;28;20261;-82
2023/03/30 04:22:52;;;;;;;5.78;4.10;;;8.80;99.90;;;;;;4991821;28;20624;-88
2023/03/30 04:25:24;;;;;;;6.95;3.92;;;8.80;99.90;;;;;;4999827;28;20270;-87
2023/03/30 04:27:51;;;;;;;6.70;3.90;;;8.90;99.90;;;;;;5000418;28;20215;-86
2023/03/30 04:30:18;;;;;;;10.25;4.45;;;8.90;99.90;;;;;;5014789;28;20605;-83
2023/03/30 04:32:45;;;;;;;9.83;4.30;;;9.00;99.90;;;;;;4997246;28;20213;-83
2023/03/30 04:35:13;;;;;;;8.15;4.50;;;9.00;99.90;;;;;;5015951;28;20167;-83
2023/03/30 04:37:41;;;;;;;7.95;3.85;;;9.10;99.90;;;;;;4998790;28;20210;-85
2023/03/30 04:40:11;;;;;;;11.15;4.47;;;9.10;99.90;;;;;;5024627;28;20555;-84
2023/03/30 04:42:37;;;;;;;5.18;4.10;;;9.10;99.90;;;;;;4998735;28;20238;-86
2023/03/30 04:45:04;;;;;;;8.03;4.20;;;9.10;99.90;;;;;;4999659;28;20286;-87
2023/03/30 04:47:31;;;;;;;9.23;4.25;;;9.10;99.90;;;;;;5011812;28;20232;-85
2023/03/30 04:49:58;;;;;;;8.63;4.40;;;9.10;99.90;;;;;;5010049;28;20397;-86
2023/03/30 04:52:24;;;;;;;5.83;3.97;;;9.10;99.90;;;;;;5016177;28;20214;-85
2023/03/30 04:54:50;;;;;;;6.22;3.92;;;9.10;99.90;;;;;;4995548;28;20215;-86
2023/03/30 04:57:16;;;;;;;6.43;3.53;;;9.20;99.90;;;;;;5002425;28;20580;-86
2023/03/30 04:59:43;;;;;;;5.82;3.88;;;9.20;99.90;;;;;;5014430;28;20203;-86
2023/03/30 05:02:10;;;;;;;8.73;4.28;;;9.30;99.90;;;;;;4999100;28;20209;-83
2023/03/30 05:04:37;;;;;;;7.97;3.77;;;9.20;99.90;;;;;;5015281;28;20262;-85
2023/03/30 05:07:03;;;;;;;4.95;4.05;;;9.30;99.90;;;;;;5000443;28;20349;-84
2023/03/30 05:09:28;;;;;;;5.67;3.73;;;9.20;99.90;;;;;;5018932;28;20187;-86
2023/03/30 05:11:54;;;;;;;6.38;3.95;;;9.20;99.90;;;;;;4996841;28;20646;-84
2023/03/30 05:14:20;;;;;;;9.40;3.88;;;9.20;99.90;;;;;;5014847;28;20195;-86
2023/03/30 05:16:46;;;;;;;5.63;3.60;;;9.10;99.90;;;;;;4999053;28;20183;-85
2023/03/30 05:19:12;;;;;;;6.40;3.53;;;9.10;99.90;;;;;;5015471;28;20626;-86
2023/03/30 05:21:37;;;;;;;6.57;3.40;;;9.10;99.90;;;;;;4998273;28;20191;-85
2023/03/30 05:24:03;;;;;;;8.57;3.90;;;9.20;99.90;;;;;;5015322;28;20179;-83
2023/03/30 05:26:29;;;;;;;4.68;3.30;;;9.20;99.90;;;;;;5015876;28;20246;-86
2023/03/30 05:28:55;;;;;;;5.53;2.80;;;9.20;99.90;;;;;;4997563;28;20187;-84
2023/03/30 05:31:20;;;;;;;6.63;3.40;;;9.30;99.90;;;;;;5015383;28;20179;-84
2023/03/30 05:33:47;;;;;;;6.55;3.67;;;9.30;99.90;;;;;;4997896;28;20183;-84
2023/03/30 05:36:12;;;;;;;6.22;3.20;;;9.40;99.90;;;;;;5013649;28;20186;-85
2023/03/30 05:38:38;;;;;;;4.68;2.70;;;9.40;99.90;;;;;;5021792;28;20698;-85
2023/03/30 05:41:05;;;;;;;9.10;3.67;;;9.50;99.90;;;;;;5017832;28;20667;-83
2023/03/30 05:43:35;;;;;;;5.65;2.80;;;9.50;99.90;;;;;;5016107;28;20175;-85
2023/03/30 05:46:01;;;;;;;4.43;2.67;;;9.60;99.90;;;;;;5015092;28;20289;-84
2023/03/30 05:48:28;;;;;;;7.50;3.22;;;9.60;99.90;;;;;;4997002;28;20183;-83
2023/03/30 05:50:54;;;;;;;4.43;3.30;;;9.70;99.90;;;;;;5015314;28;20583;-83
2023/03/30 05:53:21;;;;;;;5.70;2.67;;;9.80;99.90;;;;;;5009408;28;20648;-83
2023/03/30 05:55:47;;;;;;;6.72;2.97;;;9.80;99.90;;;;;;5014142;28;20273;-84
2023/03/30 05:58:13;;;;;;;8.13;2.33;;;9.90;99.90;;;;;;5030292;28;20249;-85
2023/03/30 06:00:41;;;;;;;5.65;2.60;;;10.10;99.90;;;;;;5014001;28;20182;-85
2023/03/30 06:03:10;;;;;;;7.30;2.30;;;10.10;99.90;;;;;;5019250;28;20329;-86
2023/03/30 06:05:44;;;;;;;4.22;2.22;;;10.30;99.90;;;;;;5030201;28;20688;-83
2023/03/30 06:08:12;;;;;;;9.60;2.65;;;10.50;99.90;;;;;;5013301;28;20195;-85
2023/03/30 06:10:38;;;;;;;7.88;2.30;;;10.70;99.90;;;;;;5030369;28;20221;-84
2023/03/30 06:13:04;;;;;;;4.28;2.38;;;10.80;99.90;;;;;;5012658;28;20219;-83
2023/03/30 06:15:30;;;;;;;8.48;2.58;;;10.80;99.90;;;;;;5014816;28;20209;-84
2023/03/30 06:17:57;;;;;;;4.72;2.45;;;10.80;99.90;;;;;;5013100;28;20262;-84
2023/03/30 06:20:25;;;;;;;5.32;2.33;;;10.80;99.90;;;;;;5013734;28;20586;-83
2023/03/30 06:22:51;;;;;;;5.45;2.30;;;10.90;99.90;;;;;;5011723;28;20226;-83
2023/03/30 06:25:19;;;;;;;6.53;2.25;;;10.90;99.90;;;;;;5021963;28;20184;-87
2023/03/30 06:27:46;;;;;;;7.05;2.03;;;10.90;99.90;;;;;;5028130;28;20206;-84
2023/03/30 06:30:14;;;;;;;3.70;1.98;;;11.00;99.90;;;;;;5014785;28;20201;-83
2023/03/30 06:32:39;;;;;;;3.15;2.00;;;11.10;99.90;;;;;;5013780;28;20175;-86
2023/03/30 06:35:05;;;;;;;5.88;2.20;;;11.20;99.90;;;;;;5018377;28;20687;-83
2023/03/30 06:37:31;;;;;;;5.70;2.25;;;11.20;99.90;;;;;;5013285;28;20588;-84
2023/03/30 06:39:58;;;;;;;4.32;2.00;;;11.30;99.90;;;;;;5013532;28;20227;-85
2023/03/30 06:42:26;;;;;;;7.30;2.80;;;11.30;99.90;;;;;;5013408;28;20512;-85
2023/03/30 06:44:52;;;;;;;4.22;2.17;;;11.40;99.90;;;;;;5012412;28;20211;-84
2023/03/30 06:47:18;;;;;;;5.07;2.30;;;11.40;99.90;;;;;;5014720;28;20207;-84
2023/03/30 06:49:44;;;;;;;8.38;2.20;;;11.40;99.90;;;;;;5029615;28;20226;-83
2023/03/30 06:52:11;;;;;;;3.95;1.85;;;11.50;99.90;;;;;;5013149;28;20571;-84
2023/03/30 06:54:37;;;;;;;5.30;2.38;;;11.50;99.90;;;;;;5013100;28;20218;-85
2023/03/30 06:57:03;;;;;;;6.07;2.28;;;11.70;99.90;;;;;;5014494;28;20175;-83
2023/03/30 06:59:29;;;;;;;6.57;2.53;;;11.80;99.90;;;;;;4996676;28;20186;-85
2023/03/30 07:01:54;;;;;;;4.05;1.90;;;11.90;99.90;;;;;;5013556;28;20202;-85
2023/03/30 07:04:20;;;;;;;5.35;2.15;;;11.90;99.90;;;;;;5013779;28;20202;-86
2023/03/30 07:06:46;;;;;;;5.35;1.80;;;11.90;99.90;;;;;;5014168;28;20807;-86
2023/03/30 07:09:12;;;;;;;7.50;2.17;;;12.00;99.90;;;;;;5014272;28;20258;-92
2023/03/30 07:11:38;;;;;;;9.50;2.60;;;12.10;99.90;;;;;;5013040;28;20258;-85
2023/03/30 07:14:04;;;;;;;4.72;1.90;;;12.20;99.90;;;;;;4996839;28;20266;-83
2023/03/30 07:16:30;;;;;;;9.57;2.38;;;12.30;99.90;;;;;;5014206;28;20182;-84
2023/03/30 07:18:56;;;;;;;5.45;2.08;;;12.40;99.90;;;;;;4996504;28;20179;-83
2023/03/30 07:21:23;;;;;;;5.68;1.98;;;12.50;99.90;;;;;;4995336;28;20191;-84
2023/03/30 07:23:49;;;;;;;5.82;2.10;;;12.60;99.90;;;;;;4996600;28;20253;-85
2023/03/30 07:26:16;;;;;;;3.85;1.80;;;12.70;99.90;;;;;;4995714;28;20199;-85
2023/03/30 07:28:42;;;;;;;7.50;2.10;;;12.80;99.90;;;;;;4996834;28;20552;-85
2023/03/30 07:31:12;;;;;;;7.78;1.88;;;12.80;99.90;;;;;;4995698;28;20279;-84
2023/03/30 07:33:38;;;;;;;6.60;1.90;;;12.80;99.90;;;;;;4996718;28;20182;-85
2023/03/30 07:36:05;;;;;;;6.97;2.22;;;12.90;99.90;;;;;;4996587;28;20524;-84
2023/03/30 07:38:31;;;;;;;4.10;1.80;;;12.90;99.90;;;;;;5013948;28;20585;-89
2023/03/30 07:40:58;;;;;;;6.75;1.98;;;12.90;99.90;;;;;;5014091;28;20624;-89
2023/03/30 07:43:25;;;;;;;5.25;2.05;;;12.90;99.90;;;;;;5014182;28;20644;-84
2023/03/30 07:45:51;;;;;;;7.10;1.58;;;13.00;99.90;;;;;;5013924;28;20253;-83
2023/03/30 07:48:17;;;;;;;7.28;1.83;;;13.10;99.90;;;;;;5013929;28;20556;-84
2023/03/30 07:50:43;;;;;;;4.82;2.05;;;13.10;99.90;;;;;;4996152;28;20190;-82
2023/03/30 07:53:09;;;;;;;10.88;2.90;;;13.10;99.90;;;;;;4995108;28;20183;-84
2023/03/30 07:55:34;;;;;;;7.22;2.08;;;13.10;99.90;;;;;;5013540;28;20559;-86
2023/03/30 07:58:00;;;;;;;6.00;2.08;;;13.10;99.90;;;;;;5014358;28;20187;-84
2023/03/30 08:00:26;;;;;;;7.45;1.70;;;13.10;99.90;;;;;;4995991;28;20175;-84
2023/03/30 08:02:52;;;;;;;9.43;2.25;;;13.10;99.90;;;;;;5013366;28;20273;-84
2023/03/30 08:05:17;;;;;;;5.45;1.95;;;13.20;99.90;;;;;;5014257;28;20552;-83
2023/03/30 08:07:43;;;;;;;3.45;1.75;;;13.30;99.90;;;;;;5013429;28;20668;-83
2023/03/30 08:10:10;;;;;;;5.97;1.83;;;13.30;99.90;;;;;;5013028;28;20179;-84
2023/03/30 08:12:36;;;;;;;3.70;1.67;;;13.30;99.90;;;;;;4993702;28;20684;-84
2023/03/30 08:15:03;;;;;;;4.75;1.75;;;13.40;99.90;;;;;;5013134;28;20210;-84
2023/03/30 08:17:28;;;;;;;5.13;1.85;;;13.40;99.90;;;;;;5013574;28;20227;-83
2023/03/30 08:19:57;;;;;;;3.90;1.60;;;13.50;99.90;;;;;;4996072;28;20207;-84
2023/03/30 08:22:23;;;;;;;9.88;2.67;;;13.60;99.90;;;;;;5002485;28;20317;-84
2023/03/30 08:24:49;;;;;;;4.05;1.65;;;13.60;99.90;;;;;;4998679;28;20320;-82
2023/03/30 08:27:15;;;;;;;4.70;1.50;;;13.70;99.90;;;;;;5032935;28;20285;-82
2023/03/30 08:29:40;;;;;;;8.20;1.80;;;13.70;99.90;;;;;;5022512;28;20184;-85
2023/03/30 08:32:06;;;;;;;10.18;2.05;;;13.70;99.90;;;;;;4995812;28;20242;-84
2023/03/30 08:34:33;;;;;;;4.30;1.80;;;13.70;99.90;;;;;;5012745;28;20369;-85
2023/03/30 08:36:59;;;;;;;6.65;1.92;;;13.80;99.90;;;;;;4995431;28;20621;-83
2023/03/30 08:39:25;;;;;;;3.70;1.65;;;13.80;99.90;;;;;;5031044;28;20202;-84
2023/03/30 08:42:05;;;;;;;4.05;2.13;;;13.80;99.90;;;;;;4998714;28;20194;-83
2023/03/30 08:44:41;;;;;;;5.68;1.95;;;13.90;99.90;;;;;;5015967;28;20182;-84
2023/03/30 08:47:19;;;;;;;7.00;2.03;;;14.00;99.90;;;;;;4999195;28;20597;-84
2023/03/30 08:50:10;;;;;;;7.38;1.70;;;14.10;99.90;;;;;;5015141;28;20167;-82
2023/03/30 08:52:36;;;;;;;4.90;1.60;;;14.20;99.90;;;;;;4998129;28;20191;-85
2023/03/30 08:55:03;;;;;;;8.02;1.80;;;14.30;99.90;;;;;;5015848;28;20218;-88
2023/03/30 08:57:47;;;;;;;5.05;1.77;;;14.30;99.90;;;;;;4999040;28;20186;-83
2023/03/30 09:00:34;;;;;;;8.20;2.22;;;14.30;99.90;;;;;;4997678;28;20639;-84
2023/03/30 09:03:14;;;;;;;9.23;1.85;;;14.40;99.90;;;;;;4998624;28;20681;-84
2023/03/30 09:05:48;;;;;;;5.55;1.70;;;14.30;99.90;;;;;;5034854;28;20178;-84
2023/03/30 09:08:17;;;;;;;6.63;1.92;;;14.30;99.90;;;;;;5014398;28;20198;-85
2023/03/30 09:10:52;;;;;;;6.30;2.25;;;14.40;99.90;;;;;;5024070;28;20258;-83
2023/03/30 09:13:21;;;;;;;8.57;2.10;;;14.40;99.90;;;;;;5015529;28;20179;-84
2023/03/30 09:16:24;;;;;;;4.18;1.75;;;14.40;99.90;;;;;;4997254;28;20176;-91
2023/03/30 09:18:53;;;;;;;7.22;1.92;;;14.40;99.90;;;;;;5000631;28;20202;-84
2023/03/30 09:21:22;;;;;;;6.07;2.00;;;14.50;99.90;;;;;;4997462;28;20194;-84
2023/03/30 09:23:52;;;;;;;9.02;2.15;;;14.80;99.90;;;;;;4998423;28;20198;-88
2023/03/30 09:26:30;;;;;;;7.25;1.90;;;14.90;99.90;;;;;;4998626;28;20525;-85
2023/03/30 09:29:02;;;;;;;4.90;2.28;;;15.10;99.90;;;;;;5017083;28;20160;-93
2023/03/30 09:31:43;;;;;;;6.47;2.03;;;15.40;99.90;;;;;;5000667;28;20629;-95
2023/03/30 09:34:34;;;;;;;8.57;2.53;;;15.70;99.90;;;;;;5028700;28;20190;-85
2023/03/30 09:37:05;;;;;;;5.55;2.10;;;15.70;99.90;;;;;;4998061;28;20708;-84
2023/03/30 09:39:34;;;;;;;6.80;2.40;;;15.80;99.90;;;;;;5014538;28;20180;-90
2023/03/30 09:42:22;;;;;;;10.00;2.20;;;15.80;99.90;;;;;;5019920;28;20595;-89
2023/03/30 09:44:51;;;;;;;13.00;2.58;;;15.70;99.90;;;;;;4996915;28;20202;-90
2023/03/30 09:47:34;;;;;;;3.50;1.83;;;15.70;99.90;;;;;;4995721;28;20262;-93
2023/03/30 09:50:14;;;;;;;8.60;2.13;;;15.70;99.90;;;;;;4998202;28;20206;-87
2023/03/30 09:52:58;;;;;;;8.80;2.42;;;15.70;99.90;;;;;;5015933;28;20190;-90
2023/03/30 09:55:32;;;;;;;7.60;2.30;;;15.70;99.90;;;;;;5016192;28;20242;-85
2023/03/30 09:58:17;;;;;;;7.38;2.72;;;15.60;99.90;;;;;;5015377;28;20206;-89
2023/03/30 10:00:44;;;;;;;6.63;2.30;;;15.80;99.90;;;;;;5017358;28;20168;-85
2023/03/30 10:03:21;;;;;;;9.82;2.42;;;16.00;99.90;;;;;;4999192;28;20191;-90
2023/03/30 10:06:06;;;;;;;8.98;2.35;;;15.90;99.90;;;;;;5016453;28;20652;-91
2023/03/30 10:08:39;;;;;;;7.32;1.95;;;16.00;99.90;;;;;;5017060;28;20187;-89
2023/03/30 10:11:05;;;;;;;9.68;2.25;;;15.90;99.90;;;;;;5017579;28;20250;-84
2023/03/30 10:13:51;;;;;;;5.90;2.20;;;15.80;99.90;;;;;;5031806;28;20190;-86
2023/03/30 10:16:28;;;;;;;11.40;2.30;;;15.80;99.90;;;;;;5035612;28;20248;-88
2023/03/30 10:18:58;;;;;;;5.30;1.88;;;15.80;99.90;;;;;;5010107;28;20193;-85
2023/03/30 10:21:29;;;;;;;11.98;2.05;;;15.70;99.90;;;;;;4997401;28;20171;-86
2023/03/30 10:24:07;;;;;;;9.00;1.60;;;15.70;99.90;;;;;;5027196;28;20229;-85
2023/03/30 10:26:36;;;;;;;5.57;1.48;;;15.80;99.90;;;;;;5034065;28;20190;-84
2023/03/30 10:29:06;;;;;;;3.45;1.63;;;15.70;99.90;;;;;;5030374;28;20218;-86
2023/03/30 10:31:37;;;;;;;4.38;1.85;;;15.60;99.90;;;;;;5017523;28;20200;-86
2023/03/30 10:34:11;;;;;;;9.02;1.67;;;15.60;99.90;;;;;;5000920;28;20594;-84
2023/03/30 10:36:39;;;;;;;6.95;1.80;;;15.50;99.90;;;;;;5014912;28;20162;-87
2023/03/30 10:39:16;;;;;;;5.18;1.80;;;15.50;99.90;;;;;;4994949;28;20175;-84
2023/03/30 10:41:43;;;;;;;5.65;1.67;;;15.50;99.90;;;;;;4997413;28;20636;-85
2023/03/30 10:44:31;;;;;;;4.28;1.70;;;15.40;99.90;;;;;;5014402;28;20588;-87
2023/03/30 10:47:31;;;;;;;2.88;1.52;;;15.40;99.90;;;;;;5014350;28;20207;-84
2023/03/30 10:50:23;;;;;;;5.70;1.70;;;15.20;99.90;;;;;;4977995;28;20186;-87
2023/03/30 10:52:59;;;;;;;6.00;1.60;;;14.90;99.90;;;;;;5008066;28;20241;-85
2023/03/30 10:55:38;;;;;;;4.68;1.52;;;14.60;99.90;;;;;;5001187;28;20684;-85
2023/03/30 10:58:31;;;;;;;4.22;1.90;;;14.40;99.90;;;;;;5019875;28;20194;-85
2023/03/30 11:01:23;;;;;;;3.80;1.52;;;14.40;99.90;;;;;;5029013;28;20277;-86
2023/03/30 11:03:57;;;;;;;3.25;1.77;;;14.30;99.90;;;;;;5019576;28;20179;-85
2023/03/30 11:06:29;;;;;;;4.50;1.77;;;14.40;99.90;;;;;;5033994;28;20697;-85
2023/03/30 11:08:59;;;;;;;5.80;1.90;;;14.70;99.90;;;;;;5024050;28;20617;-87
2023/03/30 11:11:38;;;;;;;4.00;1.70;;;15.00;99.90;;;;;;5034056;28;20162;-88
2023/03/30 11:14:18;;;;;;;7.70;1.90;;;15.20;99.90;;;;;;5020770;28;20195;-89
2023/03/30 11:17:01;;;;;;;3.90;1.83;;;15.10;99.90;;;;;;5009266;28;20186;-86
2023/03/30 11:19:35;;;;;;;4.30;2.10;;;15.00;99.90;;;;;;5000068;28;20187;-86
2023/03/30 11:22:27;;;;;;;4.10;2.28;;;14.80;99.90;;;;;;5012302;28;20711;-85
2023/03/30 11:24:56;;;;;;;7.80;2.40;;;14.60;99.90;;;;;;5013647;28;20747;-87
2023/03/30 11:27:30;;;;;;;11.27;3.00;;;14.30;99.90;;;;;;5012604;28;20222;-85
2023/03/30 11:30:01;;;;;;;5.13;2.80;;;13.90;99.90;;;;;;5013793;28;20187;-84
2023/03/30 11:32:46;;;;;;;9.48;2.65;;;13.60;99.90;;;;;;5013320;28;20226;-85
2023/03/30 11:35:18;;;;;;;4.57;1.95;;;13.40;99.90;;;;;;5012804;28;20193;-84
2023/03/30 11:38:11;;;;;;;4.70;1.88;;;13.20;99.90;;;;;;5015990;28;20195;-87
2023/03/30 11:41:08;;;;;;;7.32;2.30;;;13.00;99.90;;;;;;5014197;28;20625;-86
2023/03/30 11:43:33;;;;;;;5.47;1.55;;;12.90;99.90;;;;;;5013932;28;20630;-89
2023/03/30 11:46:07;;;;;;;3.33;1.63;;;12.90;99.90;;;;;;5013455;28;20252;-87
2023/03/30 11:48:55;;;;;;;4.13;1.80;;;13.00;99.90;;;;;;5013889;28;20285;-89
2023/03/30 11:51:44;;;;;;;2.47;1.20;;;12.80;99.90;;;;;;5014224;28;20179;-86
2023/03/30 11:54:41;;;;;;;2.72;1.00;;;12.70;99.90;;;;;;4994771;28;20678;-88
2023/03/30 11:57:35;;;;;;;2.67;0.90;;;12.50;99.90;;;;;;4999222;28;20194;-89
2023/03/30 12:00:31;;;;;;;1.58;1.00;;;12.30;99.90;;;;;;5026021;28;20190;-88
2023/03/30 12:03:05;;;;;;;2.97;1.25;;;12.30;99.90;;;;;;5018006;28;20226;-87
2023/03/30 12:05:55;;;;;;;7.82;1.15;;;12.50;99.90;;;;;;5013443;28;20241;-86
2023/03/30 12:08:47;;;;;;;5.45;1.40;;;12.70;99.90;;;;;;5015332;28;20199;-84
2023/03/30 12:11:23;;;;;;;3.65;1.13;;;12.80;99.90;;;;;;5022458;28;20189;-85
2023/03/30 12:13:50;;;;;;;2.05;0.70;;;13.00;99.90;;;;;;5017855;28;20513;-84
2023/03/30 12:16:39;;;;;;;3.47;1.10;;;13.20;99.90;;;;;;5032022;28;20191;-84
2023/03/30 12:19:49;;;;;;;8.27;1.13;;;13.70;99.90;;;;;;5017348;28;20249;-84
2023/03/30 12:22:24;;;;;;;4.30;1.00;;;13.90;99.90;;;;;;5001542;28;20197;-84
2023/03/30 12:25:13;;;;;;;4.47;1.13;;;13.70;99.90;;;;;;5017821;28;20159;-86
2023/03/30 12:27:57;;;;;;;4.30;1.20;;;13.60;99.90;;;;;;5028104;28;20349;-86
2023/03/30 12:30:28;;;;;;;4.38;1.10;;;13.90;99.90;;;;;;5032419;28;21163;-86
2023/03/30 12:33:01;;;;;;;5.05;1.40;;;13.80;99.90;;;;;;5029643;28;20621;-87
2023/03/30 12:35:57;;;;;;;4.72;1.52;;;13.70;99.90;;;;;;5032692;28;20855;-83
2023/03/30 12:38:26;;;;;;;5.43;1.42;;;13.70;99.90;;;;;;4988055;28;20199;-85
2023/03/30 12:41:01;;;;;;;7.18;1.63;;;13.80;99.90;;;;;;5028250;28;20292;-83
2023/03/30 12:43:35;;;;;;;5.75;1.65;;;13.80;99.90;;;;;;5015215;28;20233;-82
2023/03/30 12:46:34;;;;;;;4.22;1.10;;;13.80;99.90;;;;;;5015186;28;20614;-82
2023/03/30 12:49:23;;;;;;;3.58;1.50;;;14.00;99.90;;;;;;5016033;28;20175;-85
2023/03/30 12:51:57;;;;;;;4.75;1.45;;;14.50;99.90;;;;;;5018482;28;20626;-87
2023/03/30 12:54:47;;;;;;;5.75;1.40;;;15.00;99.90;;;;;;5016298;28;20277;-84
2023/03/30 12:57:22;;;;;;;6.75;1.70;;;15.20;99.90;;;;;;5031675;28;20187;-84
2023/03/30 13:00:27;;;;;;;3.90;1.35;;;15.40;99.90;;;;;;5005449;28;20175;-85
2023/03/30 13:03:38;;;;;;;7.50;2.03;;;15.40;99.90;;;;;;5031449;28;20183;-88
2023/03/30 13:06:12;;;;;;;7.00;1.73;;;15.40;99.90;;;;;;5004077;28;20226;-89
2023/03/30 13:08:40;;;;;;;4.40;1.73;;;15.50;99.90;;;;;;5019458;28;20580;-84
2023/03/30 13:11:12;;;;;;;5.95;1.50;;;15.50;99.90;;;;;;5020307;28;20183;-83
2023/03/30 13:14:13;;;;;;;4.90;1.63;;;15.40;99.90;;;;;;5017732;28;20187;-85
2023/03/30 13:16:53;;;;;;;9.50;2.20;;;15.30;99.90;;;;;;5029542;28;20179;-86
2023/03/30 13:19:39;;;;;;;7.15;1.70;;;15.30;99.90;;;;;;5014270;28;20191;-85